Time,TemperatureF,DewpointF,PressureIn,WindDirection,WindDirectionDegrees,WindSpeedMPH,WindSpeedGustMPH,Humidity,HourlyPrecipIn,Conditions,Clouds,dailyrainin,SoftwareType,DateUTC
2013-04-25 00:03:00,47.1,45.0,30.09,NW,312,3.0,-999.0,93,-99.99,,,0.00,weatherlink.com 1.10,2013-04-25 04:03:00,
2013-04-25 00:18:00,46.1,44.0,30.10,NW,309,3.0,-999.0,93,-99.99,,,0.00,weatherlink.com 1.10,2013-04-25 04:18:00,
2013-04-25 00:33:00,45.2,44.0,30.09,WNW,301,4.0,-999.0,94,-99.99,,,0.00,weatherlink.com 1.10,2013-04-25 04:33:00,
2013-04-25 00:48:00,44.6,43.0,30.11,NNW,346,5.0,-999.0,94,-99.99,,,0.00,weatherlink.com 1.10,2013-04-25 04:48:00,
2013-04-25 01:03:00,43.8,42.0,30.10,NW,325,4.0,-999.0,93,-99.99,,,0.00,weatherlink.com 1.10,2013-04-25 05:03:00,
2013-04-25 01:18:00,43.2,41.0,30.12,NW,325,3.0,-999.0,93,-99.99,,,0.00,weatherlink.com 1.10,2013-04-25 05:18:00,
2013-04-25 01:33:00,42.6,41.0,30.11,NNE,15,0.0,-999.0,94,-99.99,,,0.00,weatherlink.com 1.10,2013-04-25 05:33:00,
2013-04-25 01:48:00,42.2,41.0,30.11,NW,319,3.0,-999.0,94,-99.99,,,0.00,weatherlink.com 1.10,2013-04-25 05:48:00,
2013-04-25 02:03:00,41.6,40.0,30.12,WNW,290,3.0,-999.0,94,-99.99,,,0.00,weatherlink.com 1.10,2013-04-25 06:03:00,
2013-04-25 02:18:00,41.2,40.0,30.13,NW,317,2.0,-999.0,94,-99.99,,,0.00,weatherlink.com 1.10,2013-04-25 06:18:00,
2013-04-25 02:33:00,41.1,40.0,30.12,WNW,301,4.0,-999.0,95,-99.99,,,0.00,weatherlink.com 1.10,2013-04-25 06:33:00,
2013-04-25 02:48:00,40.1,39.0,30.11,NW,319,4.0,-999.0,94,-99.99,,,0.00,weatherlink.com 1.10,2013-04-25 06:48:00,
2013-04-25 03:03:00,39.1,38.0,30.12,NW,315,6.0,-999.0,95,-99.99,,,0.00,weatherlink.com 1.10,2013-04-25 07:03:00,
2013-04-25 03:18:00,38.3,37.0,30.13,WSW,257,5.0,-999.0,94,-99.99,,,0.00,weatherlink.com 1.10,2013-04-25 07:18:00,
2013-04-25 03:33:00,37.6,36.0,30.13,NW,326,5.0,-999.0,93,-99.99,,,0.00,weatherlink.com 1.10,2013-04-25 07:33:00,
2013-04-25 03:48:00,37.5,36.0,30.14,NW,319,6.0,-999.0,93,-99.99,,,0.00,weatherlink.com 1.10,2013-04-25 07:48:00,
2013-04-25 04:03:00,37.0,35.0,30.14,NW,306,6.0,-999.0,92,-99.99,,,0.00,weatherlink.com 1.10,2013-04-25 08:03:00,
2013-04-25 04:18:00,36.9,35.0,30.15,NW,322,6.0,-999.0,93,-99.99,,,0.00,weatherlink.com 1.10,2013-04-25 08:18:00,
2013-04-25 04:33:00,36.5,34.0,30.14,WNW,298,8.0,-999.0,92,-99.99,,,0.00,weatherlink.com 1.10,2013-04-25 08:33:00,
2013-04-25 04:48:00,35.8,34.0,30.14,WNW,299,7.0,-999.0,92,-99.99,,,0.00,weatherlink.com 1.10,2013-04-25 08:48:00,
2013-04-25 05:03:00,35.3,33.0,30.15,NW,307,9.0,-999.0,91,-99.99,,,0.00,weatherlink.com 1.10,2013-04-25 09:03:00,
2013-04-25 05:18:00,34.9,32.0,30.16,NW,314,7.0,-999.0,89,-99.99,,,0.00,weatherlink.com 1.10,2013-04-25 09:18:00,
2013-04-25 05:33:00,34.4,31.0,30.20,West,277,7.0,-999.0,88,-99.99,,,0.00,weatherlink.com 1.10,2013-04-25 09:33:00,
2013-04-25 05:48:00,33.8,30.0,30.20,NW,317,10.0,-999.0,87,-99.99,,,0.00,weatherlink.com 1.10,2013-04-25 09:48:00,
2013-04-25 06:03:00,33.1,30.0,30.21,NW,312,7.0,-999.0,88,-99.99,,,0.00,weatherlink.com 1.10,2013-04-25 10:03:00,
2013-04-25 06:19:00,32.4,29.0,30.22,NW,311,4.0,-999.0,88,-99.99,,,0.00,weatherlink.com 1.10,2013-04-25 10:19:00,
2013-04-25 06:34:00,31.9,29.0,30.22,NW,312,2.0,-999.0,89,-99.99,,,0.00,weatherlink.com 1.10,2013-04-25 10:34:00,
2013-04-25 06:49:00,31.3,29.0,30.23,NNW,344,3.0,-999.0,89,-99.99,,,0.00,weatherlink.com 1.10,2013-04-25 10:49:00,
2013-04-25 07:04:00,31.2,29.0,30.25,NW,322,7.0,-999.0,90,-99.99,,,0.00,weatherlink.com 1.10,2013-04-25 11:04:00,
2013-04-25 07:19:00,31.3,29.0,30.25,NW,320,6.0,-999.0,90,-99.99,,,0.00,weatherlink.com 1.10,2013-04-25 11:19:00,
2013-04-25 07:34:00,31.6,29.0,30.25,NNW,327,8.0,-999.0,89,-99.99,,,0.00,weatherlink.com 1.10,2013-04-25 11:34:00,
2013-04-25 07:49:00,32.1,29.0,30.25,NW,306,6.0,-999.0,87,-99.99,,,0.00,weatherlink.com 1.10,2013-04-25 11:49:00,
2013-04-25 08:04:00,32.5,29.0,30.27,WNW,299,5.0,-999.0,86,-99.99,,,0.00,weatherlink.com 1.10,2013-04-25 12:04:00,
2013-04-25 08:19:00,32.9,29.0,30.27,North,349,4.0,-999.0,85,-99.99,,,0.00,weatherlink.com 1.10,2013-04-25 12:19:00,
2013-04-25 08:34:00,33.4,29.0,30.29,NW,323,4.0,-999.0,83,-99.99,,,0.00,weatherlink.com 1.10,2013-04-25 12:34:00,
2013-04-25 08:49:00,33.8,29.0,30.29,NNW,340,3.0,-999.0,83,-99.99,,,0.00,weatherlink.com 1.10,2013-04-25 12:49:00,
2013-04-25 09:04:00,34.7,29.0,30.29,NNW,342,2.0,-999.0,81,-99.99,,,0.00,weatherlink.com 1.10,2013-04-25 13:04:00,
2013-04-25 09:19:00,35.9,30.0,30.29,NNW,331,2.0,-999.0,79,-99.99,,,0.00,weatherlink.com 1.10,2013-04-25 13:19:00,
2013-04-25 09:34:00,37.0,31.0,30.28,NNW,333,2.0,-999.0,79,-99.99,,,0.00,weatherlink.com 1.10,2013-04-25 13:34:00,
2013-04-25 09:49:00,38.6,31.0,30.28,NNW,346,5.0,-999.0,74,-99.99,,,0.00,weatherlink.com 1.10,2013-04-25 13:49:00,
2013-04-25 10:04:00,39.8,32.0,30.28,NW,319,5.0,-999.0,73,-99.99,,,0.00,weatherlink.com 1.10,2013-04-25 14:04:00,
2013-04-25 10:19:00,40.6,32.0,30.27,NW,308,2.0,-999.0,70,-99.99,,,0.00,weatherlink.com 1.10,2013-04-25 14:19:00,
2013-04-25 10:34:00,41.5,30.0,30.29,West,280,4.0,-999.0,65,-99.99,,,0.00,weatherlink.com 1.10,2013-04-25 14:34:00,
2013-04-25 10:49:00,42.6,31.0,30.30,NNW,344,0.0,-999.0,65,-99.99,,,0.00,weatherlink.com 1.10,2013-04-25 14:49:00,
2013-04-25 11:04:00,44.1,32.0,30.30,NNW,329,6.0,-999.0,62,-99.99,,,0.00,weatherlink.com 1.10,2013-04-25 15:04:00,
2013-04-25 11:19:00,44.6,32.0,30.30,WNW,293,5.0,-999.0,62,-99.99,,,0.00,weatherlink.com 1.10,2013-04-25 15:19:00,
2013-04-25 11:34:00,46.1,32.0,30.32,NNW,331,2.0,-999.0,58,-99.99,,,0.00,weatherlink.com 1.10,2013-04-25 15:34:00,
2013-04-25 11:49:00,47.1,31.0,30.33,North,360,3.0,-999.0,54,-99.99,,,0.00,weatherlink.com 1.10,2013-04-25 15:49:00,
2013-04-25 12:04:00,48.5,32.0,30.32,NW,311,3.0,-999.0,53,-99.99,,,0.00,weatherlink.com 1.10,2013-04-25 16:04:00,
2013-04-25 12:19:00,49.6,31.0,30.32,NW,306,3.0,-999.0,50,-99.99,,,0.00,weatherlink.com 1.10,2013-04-25 16:19:00,
2013-04-25 12:34:00,50.7,29.0,30.32,NNW,335,1.0,-999.0,44,-99.99,,,0.00,weatherlink.com 1.10,2013-04-25 16:34:00,
2013-04-25 12:49:00,51.4,29.0,30.32,NNW,347,4.0,-999.0,43,-99.99,,,0.00,weatherlink.com 1.10,2013-04-25 16:49:00,
2013-04-25 13:04:00,53.2,28.0,30.31,NW,311,4.0,-999.0,38,-99.99,,,0.00,weatherlink.com 1.10,2013-04-25 17:04:00,
2013-04-25 13:19:00,53.8,32.0,30.31,South,186,3.0,-999.0,43,-99.99,,,0.00,weatherlink.com 1.10,2013-04-25 17:19:00,
2013-04-25 13:34:00,55.3,25.0,30.30,NE,34,2.0,-999.0,31,-99.99,,,0.00,weatherlink.com 1.10,2013-04-25 17:34:00,
2013-04-25 13:49:00,55.7,24.0,30.30,WNW,298,2.0,-999.0,29,-99.99,,,0.00,weatherlink.com 1.10,2013-04-25 17:49:00,
2013-04-25 14:04:00,56.3,25.0,30.31,West,276,3.0,-999.0,30,-99.99,,,0.00,weatherlink.com 1.10,2013-04-25 18:04:00,
2013-04-25 14:19:00,57.2,24.0,30.30,West,281,4.0,-999.0,28,-99.99,,,0.00,weatherlink.com 1.10,2013-04-25 18:19:00,
2013-04-25 14:34:00,57.6,26.0,30.31,NW,311,3.0,-999.0,30,-99.99,,,0.00,weatherlink.com 1.10,2013-04-25 18:34:00,
2013-04-25 14:49:00,58.3,28.0,30.30,South,189,4.0,-999.0,31,-99.99,,,0.00,weatherlink.com 1.10,2013-04-25 18:49:00,
2013-04-25 15:04:00,58.4,28.0,30.29,NW,307,6.0,-999.0,32,-99.99,,,0.00,weatherlink.com 1.10,2013-04-25 19:04:00,
2013-04-25 15:19:00,58.9,27.0,30.29,NW,318,2.0,-999.0,29,-99.99,,,0.00,weatherlink.com 1.10,2013-04-25 19:19:00,
2013-04-25 15:35:00,59.9,25.0,30.29,West,265,2.0,-999.0,26,-99.99,,,0.00,weatherlink.com 1.10,2013-04-25 19:35:00,
2013-04-25 15:50:00,60.7,26.0,30.28,WNW,290,10.0,-999.0,27,-99.99,,,0.00,weatherlink.com 1.10,2013-04-25 19:50:00,
2013-04-25 16:05:00,59.9,20.0,30.29,NW,308,2.0,-999.0,21,-99.99,,,0.00,weatherlink.com 1.10,2013-04-25 20:05:00,
2013-04-25 16:20:00,60.7,17.0,30.29,NW,305,7.0,-999.0,18,-99.99,,,0.00,weatherlink.com 1.10,2013-04-25 20:20:00,
2013-04-25 16:35:00,60.4,20.0,30.30,NW,304,6.0,-999.0,21,-99.99,,,0.00,weatherlink.com 1.10,2013-04-25 20:35:00,
2013-04-25 16:50:00,60.4,18.0,30.29,WNW,298,6.0,-999.0,19,-99.99,,,0.00,weatherlink.com 1.10,2013-04-25 20:50:00,
2013-04-25 17:05:00,61.3,21.0,30.29,WNW,285,4.0,-999.0,21,-99.99,,,0.00,weatherlink.com 1.10,2013-04-25 21:05:00,
2013-04-25 17:20:00,60.4,20.0,30.29,West,273,3.0,-999.0,21,-99.99,,,0.00,weatherlink.com 1.10,2013-04-25 21:20:00,
2013-04-25 17:35:00,60.5,21.0,30.30,WNW,296,1.0,-999.0,22,-99.99,,,0.00,weatherlink.com 1.10,2013-04-25 21:35:00,
2013-04-25 17:50:00,59.8,21.0,30.31,NNW,344,6.0,-999.0,22,-99.99,,,0.00,weatherlink.com 1.10,2013-04-25 21:50:00,
2013-04-25 18:05:00,59.9,24.0,30.31,NW,304,2.0,-999.0,25,-99.99,,,0.00,weatherlink.com 1.10,2013-04-25 22:05:00,
2013-04-25 18:20:00,59.3,23.0,30.31,NW,313,4.0,-999.0,25,-99.99,,,0.00,weatherlink.com 1.10,2013-04-25 22:20:00,
2013-04-25 18:35:00,57.8,19.0,30.33,WNW,302,4.0,-999.0,22,-99.99,,,0.00,weatherlink.com 1.10,2013-04-25 22:35:00,
2013-04-25 18:50:00,57.0,18.0,30.34,NW,304,4.0,-999.0,22,-99.99,,,0.00,weatherlink.com 1.10,2013-04-25 22:50:00,
2013-04-25 19:05:00,55.9,18.0,30.34,NNW,327,5.0,-999.0,23,-99.99,,,0.00,weatherlink.com 1.10,2013-04-25 23:05:00,
2013-04-25 19:20:00,55.4,19.0,30.35,WNW,284,7.0,-999.0,24,-99.99,,,0.00,weatherlink.com 1.10,2013-04-25 23:20:00,
2013-04-25 19:36:00,54.1,17.0,30.36,WNW,287,7.0,-999.0,23,-99.99,,,0.00,weatherlink.com 1.10,2013-04-25 23:36:00,
2013-04-25 19:51:00,53.2,19.0,30.36,NW,319,1.0,-999.0,26,-99.99,,,0.00,weatherlink.com 1.10,2013-04-25 23:51:00,
2013-04-25 20:06:00,51.3,21.0,30.37,WNW,300,3.0,-999.0,30,-99.99,,,0.00,weatherlink.com 1.10,2013-04-26 00:06:00,
2013-04-25 20:21:00,49.8,22.0,30.37,WNW,290,6.0,-999.0,34,-99.99,,,0.00,weatherlink.com 1.10,2013-04-26 00:21:00,
2013-04-25 20:36:00,48.9,24.0,30.37,WNW,303,3.0,-999.0,38,-99.99,,,0.00,weatherlink.com 1.10,2013-04-26 00:36:00,
2013-04-25 20:51:00,48.5,26.0,30.37,WNW,300,5.0,-999.0,41,-99.99,,,0.00,weatherlink.com 1.10,2013-04-26 00:51:00,
2013-04-25 21:06:00,48.3,26.0,30.37,NNW,331,11.0,-999.0,42,-99.99,,,0.00,weatherlink.com 1.10,2013-04-26 01:06:00,
2013-04-25 21:21:00,47.4,27.0,30.38,WNW,298,5.0,-999.0,46,-99.99,,,0.00,weatherlink.com 1.10,2013-04-26 01:21:00,
2013-04-25 21:36:00,47.4,27.0,30.37,NNW,334,8.0,-999.0,46,-99.99,,,0.00,weatherlink.com 1.10,2013-04-26 01:36:00,
2013-04-25 21:51:00,46.8,28.0,30.37,NNW,337,10.0,-999.0,48,-99.99,,,0.00,weatherlink.com 1.10,2013-04-26 01:51:00,
2013-04-25 22:06:00,46.8,28.0,30.37,WNW,292,11.0,-999.0,48,-99.99,,,0.00,weatherlink.com 1.10,2013-04-26 02:06:00,
2013-04-25 22:21:00,47.0,28.0,30.38,WNW,302,9.0,-999.0,47,-99.99,,,0.00,weatherlink.com 1.10,2013-04-26 02:21:00,
2013-04-25 22:36:00,47.0,27.0,30.36,WNW,292,9.0,-999.0,46,-99.99,,,0.00,weatherlink.com 1.10,2013-04-26 02:36:00,
2013-04-25 22:51:00,47.0,28.0,30.36,WNW,282,2.0,-999.0,47,-99.99,,,0.00,weatherlink.com 1.10,2013-04-26 02:51:00,
2013-04-25 23:07:00,47.0,28.0,30.37,WNW,284,4.0,-999.0,48,-99.99,,,0.00,weatherlink.com 1.10,2013-04-26 03:07:00,
2013-04-25 23:22:00,46.5,29.0,30.37,NW,324,6.0,-999.0,50,-99.99,,,0.00,weatherlink.com 1.10,2013-04-26 03:22:00,
2013-04-25 23:37:00,46.0,30.0,30.36,NW,319,6.0,-999.0,53,-99.99,,,0.00,weatherlink.com 1.10,2013-04-26 03:37:00,
2013-04-25 23:52:00,45.8,29.0,30.36,NW,315,4.0,-999.0,53,-99.99,,,0.00,weatherlink.com 1.10,2013-04-26 03:52:00,